Terminal Aerodrome Forecast
Issued by NWS

Home | Current Version | Previous Version | Text Only | Print | Product List | Glossary On
Versions: 1 2 3 4 5 6 7 8 9 10 11 12 13 14 15 16 17 18 19 20 21 22 23 24 25 26 27 28 29 30 31 32 33 34 35 36 37 38 39 40 41
000
FTUS45 KSLC 231142
TAFOGD
TAF
KOGD 231142Z 2312/2412 34006KT P6SM VCSH SCT030 BKN050
      TEMPO 2314/2316 3SM -SHSN BR BKN025 OVC035
     FM231700 30008KT P6SM SCT050
     FM240000 VRB05KT P6SM VCSH BKN050
     FM240800 30006KT 5SM -SN BR BKN025=

USA.gov is the U.S. government's official web portal to all federal, state and local government web resources and services.